createdAt,value
2017-08-16T00:00:41.572Z,20.70
2017-08-16T00:03:09.045Z,20.70
2017-08-16T00:05:37.273Z,20.50
2017-08-16T00:08:04.738Z,20.50
2017-08-16T00:10:32.216Z,20.50
2017-08-16T00:12:59.688Z,20.60
2017-08-16T00:15:27.914Z,20.30
2017-08-16T00:17:55.395Z,20.30
2017-08-16T00:20:22.859Z,20.20
2017-08-16T00:22:50.339Z,20.10
2017-08-16T00:25:17.792Z,20.10
2017-08-16T00:27:45.260Z,20.20
2017-08-16T00:30:13.502Z,20.20
2017-08-16T00:32:40.989Z,20.20
2017-08-16T00:35:08.451Z,20.20
2017-08-16T00:37:36.733Z,20.20
2017-08-16T00:40:04.185Z,20.20
2017-08-16T00:42:31.648Z,20.20
2017-08-16T00:44:59.887Z,20.20
2017-08-16T00:47:27.355Z,20.10
2017-08-16T00:49:54.831Z,20.20
2017-08-16T00:52:22.299Z,20.20
2017-08-16T00:54:49.770Z,20.30
2017-08-16T00:57:17.991Z,20.20
2017-08-16T00:59:45.468Z,20.20
2017-08-16T01:02:12.932Z,20.20
2017-08-16T01:04:40.396Z,20.20
2017-08-16T01:07:07.861Z,20.10
2017-08-16T01:09:35.335Z,20.10
2017-08-16T01:12:03.568Z,19.90
2017-08-16T01:14:31.070Z,19.80
2017-08-16T01:16:58.539Z,19.80
2017-08-16T01:19:26.011Z,19.80
2017-08-16T01:21:53.475Z,19.90
2017-08-16T01:24:20.948Z,19.90
2017-08-16T01:26:48.407Z,19.90
2017-08-16T01:29:15.883Z,19.90
2017-08-16T01:31:43.344Z,19.80
2017-08-16T01:34:10.812Z,19.80
2017-08-16T01:36:38.283Z,19.80
2017-08-16T01:39:06.507Z,19.80
2017-08-16T01:41:34.683Z,19.80
2017-08-16T01:44:02.161Z,19.80
2017-08-16T01:46:29.632Z,19.80
2017-08-16T01:48:57.120Z,19.80
2017-08-16T01:51:25.363Z,19.60
2017-08-16T01:53:52.827Z,19.60
2017-08-16T01:56:20.304Z,19.50
2017-08-16T01:58:48.531Z,19.30
2017-08-16T02:01:15.999Z,19.30
2017-08-16T02:03:43.463Z,19.30
2017-08-16T02:06:10.952Z,19.30
2017-08-16T02:08:39.187Z,19.40
2017-08-16T02:11:06.652Z,19.40
2017-08-16T02:13:34.114Z,19.30
2017-08-16T02:16:01.592Z,19.30
2017-08-16T02:18:29.065Z,19.40
2017-08-16T02:20:57.311Z,19.50
2017-08-16T02:23:24.766Z,19.50
2017-08-16T02:25:58.447Z,19.50
2017-08-16T02:28:25.912Z,19.40
2017-08-16T02:30:53.378Z,19.40
2017-08-16T02:33:20.852Z,19.50
2017-08-16T02:35:48.316Z,19.60
2017-08-16T02:38:16.034Z,19.60
2017-08-16T02:40:43.519Z,19.50
2017-08-16T02:43:10.998Z,19.50
2017-08-16T02:45:38.476Z,19.50
2017-08-16T02:48:06.718Z,19.50
2017-08-16T02:50:34.179Z,19.50
2017-08-16T02:53:01.655Z,19.60
2017-08-16T02:55:29.123Z,19.70
2017-08-16T02:57:57.373Z,19.90
2017-08-16T03:00:24.861Z,19.90
2017-08-16T03:02:52.340Z,20.00
2017-08-16T03:05:19.834Z,20.00
2017-08-16T03:07:47.307Z,20.00
2017-08-16T03:10:14.780Z,20.10
2017-08-16T03:12:42.255Z,20.10
2017-08-16T03:15:10.499Z,20.30
2017-08-16T03:17:37.983Z,20.30
2017-08-16T03:20:06.224Z,20.30
2017-08-16T03:22:33.704Z,20.30
2017-08-16T03:25:01.163Z,20.30
2017-08-16T03:27:28.641Z,20.40
2017-08-16T03:29:56.872Z,20.50
2017-08-16T03:32:24.351Z,20.50
2017-08-16T03:34:51.830Z,20.50
2017-08-16T03:37:20.075Z,20.50
2017-08-16T03:39:47.560Z,20.50
2017-08-16T03:42:15.029Z,20.60
2017-08-16T03:44:43.288Z,20.40
2017-08-16T03:47:10.756Z,20.40
2017-08-16T03:49:39.004Z,20.20
2017-08-16T03:52:06.485Z,20.20
2017-08-16T03:54:33.963Z,20.20
2017-08-16T03:57:02.204Z,20.10
2017-08-16T03:59:29.688Z,20.10
2017-08-16T04:01:58.377Z,20.20
2017-08-16T04:04:26.620Z,20.00
2017-08-16T04:06:54.112Z,20.00
2017-08-16T04:09:22.373Z,20.10
2017-08-16T04:11:49.847Z,20.00
2017-08-16T04:14:17.335Z,20.10
2017-08-16T04:16:44.820Z,20.20
2017-08-16T04:19:12.284Z,20.20
2017-08-16T04:21:39.758Z,20.30
2017-08-16T04:24:07.229Z,20.30
2017-08-16T04:26:34.716Z,20.30
2017-08-16T04:29:02.199Z,20.20
2017-08-16T04:31:29.679Z,20.00
2017-08-16T04:33:57.157Z,19.90
2017-08-16T04:36:24.639Z,20.00
2017-08-16T04:38:52.879Z,20.10
2017-08-16T04:41:20.352Z,20.00
2017-08-16T04:43:47.832Z,20.10
2017-08-16T04:46:16.089Z,20.10
2017-08-16T04:48:43.564Z,20.10
2017-08-16T04:51:11.824Z,20.10
2017-08-16T04:53:39.291Z,20.10
2017-08-16T04:56:06.770Z,20.20
2017-08-16T04:58:34.250Z,20.20
2017-08-16T05:01:01.738Z,20.10
2017-08-16T05:03:29.204Z,20.10
2017-08-16T05:05:56.701Z,20.10
2017-08-16T05:08:24.182Z,20.10
2017-08-16T05:10:51.659Z,20.20
2017-08-16T05:13:19.126Z,20.20
2017-08-16T05:15:46.615Z,20.20
2017-08-16T05:18:14.871Z,20.30
2017-08-16T05:20:42.358Z,20.30
2017-08-16T05:23:10.606Z,20.30
2017-08-16T05:25:38.088Z,20.30
2017-08-16T05:28:06.336Z,20.10
2017-08-16T05:30:33.825Z,20.10
2017-08-16T05:33:02.061Z,20.00
2017-08-16T05:35:29.536Z,20.00
2017-08-16T05:37:57.003Z,20.00
2017-08-16T05:40:24.499Z,19.90
2017-08-16T05:42:51.973Z,19.90
2017-08-16T05:45:19.446Z,19.90
2017-08-16T05:47:46.923Z,19.90
2017-08-16T05:50:14.413Z,19.80
2017-08-16T05:52:42.651Z,19.80
2017-08-16T05:55:10.130Z,19.80
2017-08-16T05:57:37.612Z,19.80
2017-08-16T06:00:05.845Z,19.80
2017-08-16T06:02:33.320Z,19.80
2017-08-16T06:05:00.795Z,19.70
2017-08-16T06:07:29.049Z,19.70
2017-08-16T06:09:56.528Z,19.70
2017-08-16T06:12:24.776Z,19.70
2017-08-16T06:14:52.259Z,19.70
2017-08-16T06:17:26.100Z,19.60
2017-08-16T06:19:53.585Z,19.50
2017-08-16T06:22:21.065Z,19.50
2017-08-16T06:24:48.545Z,19.50
2017-08-16T06:27:16.019Z,19.60
2017-08-16T06:29:44.252Z,19.60
2017-08-16T06:32:11.731Z,19.50
2017-08-16T06:34:39.196Z,19.60
2017-08-16T06:37:06.674Z,19.60
2017-08-16T06:39:34.909Z,19.60
2017-08-16T06:42:02.407Z,19.60
2017-08-16T06:44:29.890Z,19.60
2017-08-16T06:46:57.381Z,19.60
2017-08-16T06:49:24.864Z,19.60
2017-08-16T06:51:52.332Z,19.70
2017-08-16T06:54:20.572Z,19.90
2017-08-16T06:56:48.071Z,19.80
2017-08-16T06:59:16.314Z,19.90
2017-08-16T07:01:43.780Z,19.80
2017-08-16T07:04:11.263Z,19.90
2017-08-16T07:06:39.503Z,19.90
2017-08-16T07:09:06.983Z,19.90
2017-08-16T07:11:34.459Z,19.90
2017-08-16T07:14:02.704Z,19.80
2017-08-16T07:16:30.176Z,19.80
2017-08-16T07:18:57.655Z,19.80
2017-08-16T07:21:25.903Z,19.80
2017-08-16T07:23:53.386Z,19.70
2017-08-16T07:26:21.626Z,19.70
2017-08-16T07:28:49.112Z,19.70
2017-08-16T07:31:17.363Z,19.60
2017-08-16T07:33:44.838Z,19.60
2017-08-16T07:36:12.316Z,19.70
2017-08-16T07:38:40.565Z,19.80
2017-08-16T07:41:08.032Z,19.80
2017-08-16T07:43:35.507Z,19.90
2017-08-16T07:46:03.747Z,20.40
2017-08-16T07:48:31.236Z,20.40
2017-08-16T07:50:59.468Z,20.50
2017-08-16T07:53:26.960Z,20.50
2017-08-16T07:55:54.436Z,20.40
2017-08-16T07:58:22.684Z,20.40
2017-08-16T08:00:50.164Z,20.40
2017-08-16T08:03:17.646Z,20.40
2017-08-16T08:05:45.119Z,20.50
2017-08-16T08:08:12.584Z,20.60
2017-08-16T08:10:40.069Z,20.60
2017-08-16T08:13:07.546Z,20.60
2017-08-16T08:15:35.026Z,20.60
2017-08-16T08:18:03.265Z,20.80
2017-08-16T08:20:30.739Z,20.80
2017-08-16T08:22:58.211Z,20.80
2017-08-16T08:25:26.465Z,21.00
2017-08-16T08:27:53.954Z,20.90
2017-08-16T08:30:22.198Z,21.20
2017-08-16T08:32:51.479Z,21.20
2017-08-16T08:35:18.957Z,21.30
2017-08-16T08:37:46.422Z,21.50
2017-08-16T08:40:13.921Z,21.60
2017-08-16T08:45:15.423Z,21.70
2017-08-16T08:47:42.897Z,21.70
2017-08-16T08:50:10.360Z,21.80
2017-08-16T08:52:37.840Z,21.80
2017-08-16T08:55:06.077Z,21.90
2017-08-16T08:57:33.550Z,21.90
2017-08-16T09:00:01.026Z,21.90
2017-08-16T09:02:28.513Z,22.00
2017-08-16T09:04:55.979Z,22.30
2017-08-16T09:07:23.466Z,22.40
2017-08-16T09:09:50.938Z,22.70
2017-08-16T09:12:18.412Z,22.60
2017-08-16T09:14:45.876Z,22.50
2017-08-16T09:17:13.367Z,22.40
2017-08-16T09:19:40.852Z,22.40
2017-08-16T09:22:08.328Z,22.50
2017-08-16T09:24:35.803Z,22.70
2017-08-16T09:27:03.288Z,22.60
2017-08-16T09:29:31.518Z,22.50
2017-08-16T09:32:02.521Z,22.50
2017-08-16T09:34:35.479Z,22.50
2017-08-16T09:37:03.731Z,22.60
2017-08-16T09:39:31.203Z,22.60
2017-08-16T09:41:58.676Z,22.70
2017-08-16T09:44:26.911Z,22.70
2017-08-16T09:46:54.412Z,22.70
2017-08-16T09:49:22.791Z,22.60
2017-08-16T09:51:51.038Z,22.50
2017-08-16T09:54:18.527Z,22.50
2017-08-16T09:56:46.016Z,22.60
2017-08-16T09:59:13.505Z,22.70
2017-08-16T10:01:40.999Z,23.00
2017-08-16T10:04:08.469Z,23.20
2017-08-16T10:06:36.708Z,23.60
2017-08-16T10:09:04.192Z,23.60
2017-08-16T10:11:31.650Z,23.60
2017-08-16T10:13:59.899Z,23.40
2017-08-16T10:16:27.375Z,23.40
2017-08-16T10:18:54.851Z,23.50
2017-08-16T10:21:23.092Z,23.40
2017-08-16T10:23:50.579Z,23.40
2017-08-16T10:26:18.806Z,23.30
2017-08-16T10:28:46.343Z,23.30
2017-08-16T10:31:13.986Z,23.20
2017-08-16T10:33:42.236Z,23.40
2017-08-16T10:36:09.716Z,23.40
2017-08-16T10:38:37.961Z,23.60
2017-08-16T10:41:05.424Z,23.60
2017-08-16T10:43:32.896Z,23.70
2017-08-16T10:46:00.384Z,23.70
2017-08-16T10:48:28.612Z,23.50
2017-08-16T10:50:56.085Z,23.50
2017-08-16T10:53:23.555Z,23.50
2017-08-16T10:55:51.023Z,23.70
2017-08-16T10:58:19.260Z,23.80
2017-08-16T11:00:46.732Z,23.70
2017-08-16T11:03:14.221Z,23.90
2017-08-16T11:05:42.460Z,24.00
2017-08-16T11:08:09.928Z,24.00
2017-08-16T11:10:37.404Z,24.30
2017-08-16T11:13:05.639Z,24.30
2017-08-16T11:15:33.108Z,24.30
2017-08-16T11:18:00.575Z,24.30
2017-08-16T11:20:28.056Z,24.20
2017-08-16T11:22:56.283Z,24.20
2017-08-16T11:25:23.777Z,24.20
2017-08-16T11:27:51.239Z,24.10
2017-08-16T11:30:18.699Z,24.30
2017-08-16T11:32:46.172Z,24.50
2017-08-16T11:35:14.395Z,24.90
2017-08-16T11:37:41.876Z,24.80
2017-08-16T11:40:09.335Z,25.00
2017-08-16T11:42:36.815Z,24.90
2017-08-16T11:45:05.043Z,24.80
2017-08-16T11:47:32.520Z,24.70
2017-08-16T11:49:59.998Z,24.70
2017-08-16T11:52:27.471Z,24.60
2017-08-16T11:54:55.705Z,24.40
2017-08-16T11:57:23.171Z,24.40
2017-08-16T11:59:50.634Z,24.40
2017-08-16T12:02:18.103Z,24.40
2017-08-16T12:04:45.567Z,24.50
2017-08-16T12:07:14.417Z,24.60
2017-08-16T12:09:41.970Z,24.60
2017-08-16T12:12:09.427Z,24.60
2017-08-16T12:14:36.900Z,24.80
2017-08-16T12:17:04.381Z,24.90
2017-08-16T12:19:31.843Z,24.90
2017-08-16T12:21:59.332Z,24.90
2017-08-16T12:24:27.555Z,24.80
2017-08-16T12:26:55.026Z,24.90
2017-08-16T12:29:22.484Z,25.00
2017-08-16T12:31:50.422Z,25.20
2017-08-16T12:34:17.871Z,25.30
2017-08-16T12:36:45.372Z,25.50
2017-08-16T12:39:12.824Z,25.80
2017-08-16T12:41:40.296Z,26.10
2017-08-16T12:44:07.763Z,26.30
2017-08-16T12:46:35.235Z,26.40
2017-08-16T12:49:03.467Z,26.60
2017-08-16T12:51:30.934Z,26.60
2017-08-16T12:53:58.416Z,26.50
2017-08-16T12:56:26.664Z,26.50
2017-08-16T12:58:54.152Z,26.50
2017-08-16T13:01:21.621Z,26.60
2017-08-16T13:03:52.348Z,26.30
2017-08-16T13:06:19.816Z,26.00
2017-08-16T13:08:47.281Z,26.00
2017-08-16T13:11:14.736Z,25.80
2017-08-16T13:14:01.816Z,26.00
2017-08-16T13:16:30.048Z,26.10
2017-08-16T13:18:57.522Z,26.10
2017-08-16T13:21:24.986Z,26.30
2017-08-16T13:23:52.480Z,26.60
2017-08-16T13:26:20.707Z,26.70
2017-08-16T13:28:48.242Z,26.70
2017-08-16T13:31:15.820Z,26.80
2017-08-16T13:33:44.205Z,27.00
2017-08-16T13:36:11.727Z,27.00
2017-08-16T13:38:39.188Z,27.30
2017-08-16T13:41:06.659Z,27.50
2017-08-16T13:43:34.123Z,27.70
2017-08-16T13:46:01.593Z,27.80
2017-08-16T13:48:29.145Z,27.60
2017-08-16T13:50:56.861Z,27.30
2017-08-16T13:53:25.086Z,27.40
2017-08-16T13:55:52.570Z,27.40
2017-08-16T13:58:20.024Z,27.50
2017-08-16T14:00:47.508Z,27.50
2017-08-16T14:03:14.963Z,27.50
2017-08-16T14:05:43.227Z,27.60
2017-08-16T14:08:10.696Z,27.60
2017-08-16T14:10:38.190Z,27.60
2017-08-16T14:13:05.753Z,27.60
2017-08-16T14:15:33.216Z,27.40
2017-08-16T14:18:00.701Z,27.40
2017-08-16T14:20:28.155Z,27.20
2017-08-16T14:22:55.636Z,27.10
2017-08-16T14:25:23.107Z,27.20
2017-08-16T14:27:50.580Z,27.30
2017-08-16T14:30:18.820Z,27.60
2017-08-16T14:32:46.285Z,27.60
2017-08-16T14:35:13.747Z,27.70
2017-08-16T14:37:41.224Z,27.90
2017-08-16T14:40:09.606Z,27.60
2017-08-16T14:42:37.117Z,27.60
2017-08-16T14:45:04.588Z,27.30
2017-08-16T14:47:32.064Z,27.20
2017-08-16T14:49:59.520Z,27.20
2017-08-16T14:52:26.988Z,27.30
2017-08-16T14:54:54.447Z,27.20
2017-08-16T14:57:21.911Z,27.10
2017-08-16T14:59:50.151Z,27.10
2017-08-16T15:02:17.619Z,27.10
2017-08-16T15:04:45.083Z,26.90
2017-08-16T15:07:12.544Z,26.80
2017-08-16T15:09:40.017Z,26.90
2017-08-16T15:12:07.522Z,26.90
2017-08-16T15:14:36.164Z,26.90
2017-08-16T15:17:05.355Z,26.70
2017-08-16T15:19:39.351Z,26.70
2017-08-16T15:22:06.824Z,26.70
2017-08-16T15:24:34.308Z,26.70
2017-08-16T15:27:02.547Z,26.90
2017-08-16T15:29:30.021Z,26.90
2017-08-16T15:31:57.483Z,26.90
2017-08-16T15:34:25.732Z,26.60
2017-08-16T15:36:53.187Z,26.60
2017-08-16T15:39:20.688Z,26.50
2017-08-16T15:41:48.912Z,26.40
2017-08-16T15:44:16.391Z,26.40
2017-08-16T15:46:43.868Z,26.30
2017-08-16T15:49:11.434Z,26.20
2017-08-16T15:51:38.934Z,26.20
2017-08-16T15:54:06.432Z,26.00
2017-08-16T15:56:34.611Z,25.90
2017-08-16T15:59:02.169Z,25.80
2017-08-16T16:01:29.659Z,25.80
2017-08-16T16:03:57.895Z,25.90
2017-08-16T16:06:26.277Z,25.80
2017-08-16T16:08:53.851Z,25.80
2017-08-16T16:11:21.353Z,25.80
2017-08-16T16:13:48.810Z,25.80
2017-08-16T16:16:16.304Z,25.70
2017-08-16T16:18:43.813Z,25.70
2017-08-16T16:21:12.044Z,25.50
2017-08-16T16:23:39.504Z,25.50
2017-08-16T16:26:06.975Z,25.50
2017-08-16T16:28:35.184Z,25.50
2017-08-16T16:31:03.433Z,25.40
2017-08-16T16:33:30.893Z,25.40
2017-08-16T16:35:58.375Z,25.40
2017-08-16T16:38:26.632Z,25.40
2017-08-16T16:40:54.094Z,25.30
2017-08-16T16:43:25.435Z,25.20
2017-08-16T16:45:52.904Z,25.30
2017-08-16T16:48:21.796Z,25.10
2017-08-16T16:50:50.042Z,25.10
2017-08-16T16:53:17.520Z,25.10
2017-08-16T16:55:45.592Z,25.10
2017-08-16T16:58:19.891Z,25.00
2017-08-16T17:00:54.732Z,25.00
2017-08-16T17:03:28.463Z,24.90
2017-08-16T17:05:55.969Z,24.90
2017-08-16T17:08:23.427Z,24.80
2017-08-16T17:10:51.004Z,24.70
2017-08-16T17:13:18.463Z,24.70
2017-08-16T17:15:45.935Z,24.60
2017-08-16T17:18:13.395Z,24.50
2017-08-16T17:20:40.920Z,24.40
2017-08-16T17:23:08.502Z,24.30
2017-08-16T17:25:35.952Z,24.20
2017-08-16T17:28:03.424Z,24.20
2017-08-16T17:30:30.892Z,24.20
2017-08-16T17:32:58.402Z,24.10
2017-08-16T17:35:25.863Z,24.00
2017-08-16T17:37:53.339Z,23.60
2017-08-16T17:40:20.824Z,23.50
2017-08-16T17:42:48.315Z,23.20
2017-08-16T17:45:15.785Z,23.10
2017-08-16T17:47:43.261Z,23.00
2017-08-16T17:50:13.778Z,22.90
2017-08-16T17:52:41.263Z,22.80
2017-08-16T17:55:08.755Z,22.80
2017-08-16T17:57:37.096Z,22.70
2017-08-16T18:00:04.567Z,22.70
2017-08-16T18:02:32.959Z,22.60
2017-08-16T18:05:00.436Z,22.60
2017-08-16T18:07:27.922Z,22.60
2017-08-16T18:09:55.387Z,22.60
2017-08-16T18:12:22.852Z,22.60
2017-08-16T18:14:50.451Z,22.70
2017-08-16T18:17:17.903Z,22.70
2017-08-16T18:19:46.078Z,22.70
2017-08-16T18:22:15.195Z,22.50
2017-08-16T18:24:42.678Z,22.50
2017-08-16T18:27:10.170Z,22.30
2017-08-16T18:29:38.421Z,22.10
2017-08-16T18:32:05.884Z,22.00
2017-08-16T18:34:33.360Z,22.00
2017-08-16T18:37:00.919Z,22.00
2017-08-16T18:39:28.929Z,21.90
2017-08-16T18:41:56.392Z,21.70
2017-08-16T18:44:23.880Z,21.60
2017-08-16T18:46:52.111Z,21.60
2017-08-16T18:49:19.595Z,21.60
2017-08-16T18:51:47.053Z,21.60
2017-08-16T18:54:15.294Z,21.60
2017-08-16T18:56:42.759Z,21.60
2017-08-16T18:59:10.230Z,21.60
2017-08-16T19:01:37.968Z,21.60
2017-08-16T19:04:05.468Z,21.50
2017-08-16T19:06:32.939Z,21.50
2017-08-16T19:09:01.170Z,21.30
2017-08-16T19:11:29.328Z,21.30
2017-08-16T19:13:57.535Z,21.30
2017-08-16T19:16:25.040Z,21.00
2017-08-16T19:18:52.498Z,20.70
2017-08-16T19:21:19.979Z,20.40
2017-08-16T19:23:47.477Z,20.30
2017-08-16T19:26:14.967Z,20.40
2017-08-16T19:28:42.543Z,20.40
2017-08-16T19:31:10.048Z,20.40
2017-08-16T19:33:37.512Z,20.40
2017-08-16T19:36:05.000Z,20.30
2017-08-16T19:38:33.226Z,20.30
2017-08-16T19:41:00.708Z,20.30
2017-08-16T19:43:28.170Z,20.30
2017-08-16T19:45:55.654Z,20.20
2017-08-16T19:48:23.893Z,20.10
2017-08-16T19:50:51.361Z,20.10
2017-08-16T19:53:18.831Z,20.10
2017-08-16T19:55:46.301Z,20.00
2017-08-16T19:58:14.552Z,19.70
2017-08-16T20:00:42.020Z,19.70
2017-08-16T20:03:10.269Z,19.60
2017-08-16T20:05:37.737Z,19.60
2017-08-16T20:08:05.218Z,19.60
2017-08-16T20:10:33.456Z,19.60
2017-08-16T20:13:00.931Z,19.50
2017-08-16T20:15:28.399Z,19.50
2017-08-16T20:17:55.892Z,19.40
2017-08-16T20:20:23.362Z,19.30
2017-08-16T20:22:50.857Z,19.40
2017-08-16T20:25:18.323Z,19.30
2017-08-16T20:27:45.795Z,19.30
2017-08-16T20:30:13.264Z,19.30
2017-08-16T20:32:41.516Z,19.00
2017-08-16T20:35:08.984Z,19.00
2017-08-16T20:37:36.464Z,19.00
2017-08-16T20:40:04.707Z,18.90
2017-08-16T20:42:32.188Z,18.90
2017-08-16T20:45:00.420Z,18.60
2017-08-16T20:47:27.892Z,18.60
2017-08-16T20:49:55.367Z,18.70
2017-08-16T20:52:22.836Z,18.70
2017-08-16T20:54:51.111Z,18.70
2017-08-16T20:57:18.572Z,18.70
2017-08-16T20:59:46.823Z,18.70
2017-08-16T21:02:14.298Z,18.60
2017-08-16T21:04:41.768Z,18.60
2017-08-16T21:07:09.237Z,18.60
2017-08-16T21:09:37.479Z,18.50
2017-08-16T21:12:04.951Z,18.40
2017-08-16T21:14:32.435Z,18.10
2017-08-16T21:17:00.676Z,18.10
2017-08-16T21:19:28.147Z,18.00
2017-08-16T21:21:55.672Z,18.10
2017-08-16T21:24:23.151Z,18.10
2017-08-16T21:26:50.647Z,18.10
2017-08-16T21:29:18.922Z,18.10
2017-08-16T21:31:46.443Z,18.10
2017-08-16T21:34:13.912Z,18.00
2017-08-16T21:36:41.391Z,17.90
2017-08-16T21:39:09.633Z,17.60
2017-08-16T21:41:37.112Z,17.60
2017-08-16T21:44:04.579Z,17.60
2017-08-16T21:46:32.065Z,17.60
2017-08-16T21:48:59.545Z,17.60
2017-08-16T21:51:27.023Z,17.70
2017-08-16T21:53:54.498Z,17.60
2017-08-16T21:56:21.973Z,17.60
2017-08-16T21:58:51.037Z,17.60
2017-08-16T22:01:18.517Z,17.50
2017-08-16T22:04:05.547Z,17.50
2017-08-16T22:06:33.800Z,17.60
2017-08-16T22:09:01.273Z,17.60
2017-08-16T22:11:28.750Z,17.60
2017-08-16T22:13:57.419Z,17.60
2017-08-16T22:16:25.660Z,17.60
2017-08-16T22:18:53.140Z,17.50
2017-08-16T22:21:20.614Z,17.50
2017-08-16T22:23:48.856Z,17.50
2017-08-16T22:26:16.599Z,17.50
2017-08-16T22:28:44.071Z,17.50
2017-08-16T22:31:11.548Z,17.40
2017-08-16T22:33:39.041Z,17.40
2017-08-16T22:36:07.280Z,17.20
2017-08-16T22:38:34.748Z,17.10
2017-08-16T22:41:02.224Z,17.20
2017-08-16T22:43:30.471Z,16.90
2017-08-16T22:45:57.945Z,16.90
2017-08-16T22:48:25.420Z,16.90
2017-08-16T22:50:53.652Z,17.00
2017-08-16T22:53:21.127Z,17.00
2017-08-16T22:55:48.595Z,17.00
2017-08-16T22:58:16.081Z,17.00
2017-08-16T23:00:43.596Z,16.90
2017-08-16T23:03:11.081Z,16.90
2017-08-16T23:05:38.560Z,16.90
2017-08-16T23:08:06.121Z,16.90
2017-08-16T23:10:34.285Z,16.90
2017-08-16T23:13:02.603Z,16.90
2017-08-16T23:15:30.565Z,16.90
2017-08-16T23:17:58.050Z,16.90
2017-08-16T23:20:25.511Z,16.90
2017-08-16T23:22:52.998Z,16.70
2017-08-16T23:25:21.240Z,16.70
2017-08-16T23:27:48.720Z,16.70
2017-08-16T23:30:16.201Z,16.50
2017-08-16T23:32:44.437Z,16.40
2017-08-16T23:35:11.919Z,16.40
2017-08-16T23:37:39.382Z,16.40
2017-08-16T23:40:08.333Z,16.40
2017-08-16T23:42:35.795Z,16.40
2017-08-16T23:45:03.268Z,16.50
2017-08-16T23:47:30.744Z,16.50
2017-08-16T23:49:58.220Z,16.50
2017-08-16T23:52:26.469Z,16.40
2017-08-16T23:54:53.946Z,16.40
2017-08-16T23:57:22.178Z,16.40
2017-08-16T23:59:49.670Z,16.40
